sensor_id;sensor_type;location;lat;lon;timestamp;P1;durP1;ratioP1;P2;durP2;ratioP2
13263;SDS011;6700;51.988;7.646;2023-02-28T00:01:12;7.53;;;5.27;;
13263;SDS011;6700;51.988;7.646;2023-02-28T00:03:39;12.43;;;5.00;;
13263;SDS011;6700;51.988;7.646;2023-02-28T00:06:06;14.90;;;7.47;;
13263;SDS011;6700;51.988;7.646;2023-02-28T00:08:36;18.30;;;9.33;;
13263;SDS011;6700;51.988;7.646;2023-02-28T00:11:04;13.33;;;7.47;;
13263;SDS011;6700;51.988;7.646;2023-02-28T00:13:35;10.83;;;6.50;;
13263;SDS011;6700;51.988;7.646;2023-02-28T00:16:07;8.83;;;5.63;;
13263;SDS011;6700;51.988;7.646;2023-02-28T00:18:39;8.20;;;6.17;;
13263;SDS011;6700;51.988;7.646;2023-02-28T00:21:07;8.60;;;5.27;;
13263;SDS011;6700;51.988;7.646;2023-02-28T00:23:34;10.50;;;5.60;;
13263;SDS011;6700;51.988;7.646;2023-02-28T00:26:01;5.20;;;4.63;;
13263;SDS011;6700;51.988;7.646;2023-02-28T00:28:28;5.30;;;4.57;;
13263;SDS011;6700;51.988;7.646;2023-02-28T00:30:55;6.30;;;4.80;;
13263;SDS011;6700;51.988;7.646;2023-02-28T00:33:23;7.43;;;4.70;;
13263;SDS011;6700;51.988;7.646;2023-02-28T00:35:50;5.63;;;4.37;;
13263;SDS011;6700;51.988;7.646;2023-02-28T00:38:17;9.20;;;5.10;;
13263;SDS011;6700;51.988;7.646;2023-02-28T00:40:44;8.47;;;5.07;;
13263;SDS011;6700;51.988;7.646;2023-02-28T00:43:10;8.47;;;4.93;;
13263;SDS011;6700;51.988;7.646;2023-02-28T00:45:37;8.17;;;4.93;;
13263;SDS011;6700;51.988;7.646;2023-02-28T00:48:04;9.43;;;5.43;;
13263;SDS011;6700;51.988;7.646;2023-02-28T00:50:31;9.10;;;5.47;;
13263;SDS011;6700;51.988;7.646;2023-02-28T00:52:57;5.77;;;4.67;;
13263;SDS011;6700;51.988;7.646;2023-02-28T00:55:24;7.77;;;4.60;;
13263;SDS011;6700;51.988;7.646;2023-02-28T00:57:51;5.73;;;4.50;;
13263;SDS011;6700;51.988;7.646;2023-02-28T01:00:17;7.83;;;4.30;;
13263;SDS011;6700;51.988;7.646;2023-02-28T01:02:44;9.23;;;5.63;;
13263;SDS011;6700;51.988;7.646;2023-02-28T01:05:11;6.83;;;4.30;;
13263;SDS011;6700;51.988;7.646;2023-02-28T01:07:37;6.90;;;5.07;;
13263;SDS011;6700;51.988;7.646;2023-02-28T01:10:04;6.07;;;4.43;;
13263;SDS011;6700;51.988;7.646;2023-02-28T01:12:31;10.23;;;5.43;;
13263;SDS011;6700;51.988;7.646;2023-02-28T01:14:58;8.47;;;5.20;;
13263;SDS011;6700;51.988;7.646;2023-02-28T01:17:25;7.27;;;5.20;;
13263;SDS011;6700;51.988;7.646;2023-02-28T01:19:53;8.73;;;5.70;;
13263;SDS011;6700;51.988;7.646;2023-02-28T01:22:21;5.90;;;5.30;;
13263;SDS011;6700;51.988;7.646;2023-02-28T01:24:48;6.83;;;5.80;;
13263;SDS011;6700;51.988;7.646;2023-02-28T01:27:14;9.93;;;5.27;;
13263;SDS011;6700;51.988;7.646;2023-02-28T01:29:41;6.23;;;4.57;;
13263;SDS011;6700;51.988;7.646;2023-02-28T01:32:08;8.17;;;4.87;;
13263;SDS011;6700;51.988;7.646;2023-02-28T01:34:35;11.03;;;4.97;;
13263;SDS011;6700;51.988;7.646;2023-02-28T01:37:01;7.63;;;5.03;;
13263;SDS011;6700;51.988;7.646;2023-02-28T01:39:29;9.43;;;5.10;;
13263;SDS011;6700;51.988;7.646;2023-02-28T01:41:56;6.30;;;5.23;;
13263;SDS011;6700;51.988;7.646;2023-02-28T01:47:23;7.17;;;5.67;;
13263;SDS011;6700;51.988;7.646;2023-02-28T01:49:54;7.67;;;4.53;;
13263;SDS011;6700;51.988;7.646;2023-02-28T01:52:21;6.07;;;4.70;;
13263;SDS011;6700;51.988;7.646;2023-02-28T01:54:52;5.70;;;4.90;;
13263;SDS011;6700;51.988;7.646;2023-02-28T01:57:25;5.87;;;4.80;;
13263;SDS011;6700;51.988;7.646;2023-02-28T01:59:57;5.57;;;4.93;;
13263;SDS011;6700;51.988;7.646;2023-02-28T02:02:30;5.77;;;5.10;;
13263;SDS011;6700;51.988;7.646;2023-02-28T02:04:58;8.47;;;5.23;;
13263;SDS011;6700;51.988;7.646;2023-02-28T02:07:33;7.80;;;5.27;;
13263;SDS011;6700;51.988;7.646;2023-02-28T02:10:13;7.03;;;5.53;;
13263;SDS011;6700;51.988;7.646;2023-02-28T02:15:51;6.87;;;4.57;;
13263;SDS011;6700;51.988;7.646;2023-02-28T02:33:10;8.50;;;5.87;;
13263;SDS011;6700;51.988;7.646;2023-02-28T02:41:11;7.63;;;5.37;;
13263;SDS011;6700;51.988;7.646;2023-02-28T02:43:48;7.43;;;5.60;;
13263;SDS011;6700;51.988;7.646;2023-02-28T02:46:41;12.40;;;5.97;;
13263;SDS011;6700;51.988;7.646;2023-02-28T02:49:13;6.30;;;5.10;;
13263;SDS011;6700;51.988;7.646;2023-02-28T02:51:45;7.77;;;5.77;;
13263;SDS011;6700;51.988;7.646;2023-02-28T02:54:24;7.27;;;5.33;;
13263;SDS011;6700;51.988;7.646;2023-02-28T02:56:55;9.30;;;5.63;;
13263;SDS011;6700;51.988;7.646;2023-02-28T02:59:25;6.57;;;5.07;;
13263;SDS011;6700;51.988;7.646;2023-02-28T03:01:55;7.07;;;5.43;;
13263;SDS011;6700;51.988;7.646;2023-02-28T03:04:26;14.43;;;5.70;;
13263;SDS011;6700;51.988;7.646;2023-02-28T03:06:58;8.83;;;5.13;;
13263;SDS011;6700;51.988;7.646;2023-02-28T03:09:25;9.53;;;5.80;;
13263;SDS011;6700;51.988;7.646;2023-02-28T03:11:54;9.37;;;5.53;;
13263;SDS011;6700;51.988;7.646;2023-02-28T03:14:25;8.83;;;5.53;;
13263;SDS011;6700;51.988;7.646;2023-02-28T03:19:33;5.37;;;4.87;;
13263;SDS011;6700;51.988;7.646;2023-02-28T03:25:21;6.43;;;5.77;;
13263;SDS011;6700;51.988;7.646;2023-02-28T03:31:27;9.30;;;6.13;;
13263;SDS011;6700;51.988;7.646;2023-02-28T03:34:01;8.90;;;6.53;;
13263;SDS011;6700;51.988;7.646;2023-02-28T03:36:37;8.77;;;6.07;;
13263;SDS011;6700;51.988;7.646;2023-02-28T03:39:17;9.00;;;5.80;;
13263;SDS011;6700;51.988;7.646;2023-02-28T03:41:50;7.77;;;5.67;;
13263;SDS011;6700;51.988;7.646;2023-02-28T03:44:34;9.07;;;6.43;;
13263;SDS011;6700;51.988;7.646;2023-02-28T03:47:09;11.67;;;5.13;;
13263;SDS011;6700;51.988;7.646;2023-02-28T03:49:43;8.60;;;5.60;;
13263;SDS011;6700;51.988;7.646;2023-02-28T03:52:17;8.73;;;5.80;;
13263;SDS011;6700;51.988;7.646;2023-02-28T03:54:47;6.40;;;5.80;;
13263;SDS011;6700;51.988;7.646;2023-02-28T03:57:37;6.70;;;5.63;;
13263;SDS011;6700;51.988;7.646;2023-02-28T04:00:26;8.00;;;5.57;;
13263;SDS011;6700;51.988;7.646;2023-02-28T04:02:58;9.67;;;5.80;;
13263;SDS011;6700;51.988;7.646;2023-02-28T04:05:25;9.30;;;6.63;;
13263;SDS011;6700;51.988;7.646;2023-02-28T04:07:53;9.13;;;5.83;;
13263;SDS011;6700;51.988;7.646;2023-02-28T04:10:20;9.53;;;5.80;;
13263;SDS011;6700;51.988;7.646;2023-02-28T04:12:47;10.97;;;5.80;;
13263;SDS011;6700;51.988;7.646;2023-02-28T04:15:14;6.70;;;5.50;;
13263;SDS011;6700;51.988;7.646;2023-02-28T04:17:41;8.13;;;5.33;;
13263;SDS011;6700;51.988;7.646;2023-02-28T04:20:07;7.57;;;6.67;;
13263;SDS011;6700;51.988;7.646;2023-02-28T04:22:37;9.63;;;5.63;;
13263;SDS011;6700;51.988;7.646;2023-02-28T04:25:04;10.00;;;5.87;;
13263;SDS011;6700;51.988;7.646;2023-02-28T04:27:32;10.13;;;5.73;;
13263;SDS011;6700;51.988;7.646;2023-02-28T04:29:59;9.73;;;6.07;;
13263;SDS011;6700;51.988;7.646;2023-02-28T04:32:25;8.60;;;5.87;;
13263;SDS011;6700;51.988;7.646;2023-02-28T04:34:52;7.20;;;5.53;;
13263;SDS011;6700;51.988;7.646;2023-02-28T04:37:19;7.77;;;5.57;;
13263;SDS011;6700;51.988;7.646;2023-02-28T04:39:46;7.07;;;5.83;;
13263;SDS011;6700;51.988;7.646;2023-02-28T04:42:13;6.87;;;5.47;;
13263;SDS011;6700;51.988;7.646;2023-02-28T04:44:41;7.40;;;6.07;;
13263;SDS011;6700;51.988;7.646;2023-02-28T04:47:07;8.03;;;5.77;;
13263;SDS011;6700;51.988;7.646;2023-02-28T04:49:34;9.30;;;5.53;;
13263;SDS011;6700;51.988;7.646;2023-02-28T04:52:01;6.60;;;5.60;;
13263;SDS011;6700;51.988;7.646;2023-02-28T04:54:28;7.23;;;5.73;;
13263;SDS011;6700;51.988;7.646;2023-02-28T04:56:56;7.73;;;6.30;;
13263;SDS011;6700;51.988;7.646;2023-02-28T04:59:23;8.97;;;6.00;;
13263;SDS011;6700;51.988;7.646;2023-02-28T05:01:50;8.13;;;5.57;;
13263;SDS011;6700;51.988;7.646;2023-02-28T05:04:16;11.60;;;6.60;;
13263;SDS011;6700;51.988;7.646;2023-02-28T05:06:43;15.73;;;9.10;;
13263;SDS011;6700;51.988;7.646;2023-02-28T05:09:10;18.90;;;11.93;;
13263;SDS011;6700;51.988;7.646;2023-02-28T05:11:38;16.43;;;10.07;;
13263;SDS011;6700;51.988;7.646;2023-02-28T05:14:08;19.37;;;12.73;;
13263;SDS011;6700;51.988;7.646;2023-02-28T05:16:37;23.03;;;12.73;;
13263;SDS011;6700;51.988;7.646;2023-02-28T05:19:04;16.30;;;8.87;;
13263;SDS011;6700;51.988;7.646;2023-02-28T05:21:32;15.10;;;8.27;;
13263;SDS011;6700;51.988;7.646;2023-02-28T05:24:04;12.27;;;6.90;;
13263;SDS011;6700;51.988;7.646;2023-02-28T05:26:34;14.37;;;6.37;;
13263;SDS011;6700;51.988;7.646;2023-02-28T05:29:02;9.20;;;6.13;;
13263;SDS011;6700;51.988;7.646;2023-02-28T05:31:29;13.73;;;7.17;;
13263;SDS011;6700;51.988;7.646;2023-02-28T05:33:56;10.40;;;6.57;;
13263;SDS011;6700;51.988;7.646;2023-02-28T05:36:23;10.00;;;5.20;;
13263;SDS011;6700;51.988;7.646;2023-02-28T05:38:50;9.37;;;5.97;;
13263;SDS011;6700;51.988;7.646;2023-02-28T05:41:18;8.90;;;5.77;;
13263;SDS011;6700;51.988;7.646;2023-02-28T05:43:46;6.97;;;5.57;;
13263;SDS011;6700;51.988;7.646;2023-02-28T05:46:14;7.23;;;5.83;;
13263;SDS011;6700;51.988;7.646;2023-02-28T05:48:41;8.53;;;6.17;;
13263;SDS011;6700;51.988;7.646;2023-02-28T05:51:08;11.07;;;5.90;;
13263;SDS011;6700;51.988;7.646;2023-02-28T05:53:35;9.17;;;5.63;;
13263;SDS011;6700;51.988;7.646;2023-02-28T05:56:03;10.63;;;5.73;;
13263;SDS011;6700;51.988;7.646;2023-02-28T05:58:30;7.60;;;4.70;;
13263;SDS011;6700;51.988;7.646;2023-02-28T06:00:57;6.37;;;4.97;;
13263;SDS011;6700;51.988;7.646;2023-02-28T06:03:25;9.13;;;4.97;;
13263;SDS011;6700;51.988;7.646;2023-02-28T06:05:52;6.07;;;4.60;;
13263;SDS011;6700;51.988;7.646;2023-02-28T06:08:19;5.87;;;4.73;;
13263;SDS011;6700;51.988;7.646;2023-02-28T06:10:46;11.43;;;4.93;;
13263;SDS011;6700;51.988;7.646;2023-02-28T06:13:13;7.53;;;5.27;;
13263;SDS011;6700;51.988;7.646;2023-02-28T06:15:40;7.33;;;5.07;;
13263;SDS011;6700;51.988;7.646;2023-02-28T06:18:07;5.53;;;5.03;;
13263;SDS011;6700;51.988;7.646;2023-02-28T06:20:34;6.50;;;4.60;;
13263;SDS011;6700;51.988;7.646;2023-02-28T06:23:02;8.13;;;5.17;;
13263;SDS011;6700;51.988;7.646;2023-02-28T06:25:29;8.87;;;5.67;;
13263;SDS011;6700;51.988;7.646;2023-02-28T06:27:56;9.13;;;5.50;;
13263;SDS011;6700;51.988;7.646;2023-02-28T06:30:22;6.83;;;5.10;;
13263;SDS011;6700;51.988;7.646;2023-02-28T06:32:53;7.47;;;5.10;;
13263;SDS011;6700;51.988;7.646;2023-02-28T06:35:20;7.83;;;5.13;;
13263;SDS011;6700;51.988;7.646;2023-02-28T06:37:47;7.80;;;5.97;;
13263;SDS011;6700;51.988;7.646;2023-02-28T06:40:14;7.57;;;5.40;;
13263;SDS011;6700;51.988;7.646;2023-02-28T06:42:41;8.73;;;5.47;;
13263;SDS011;6700;51.988;7.646;2023-02-28T06:45:08;9.80;;;5.30;;
13263;SDS011;6700;51.988;7.646;2023-02-28T06:47:37;11.30;;;6.17;;
13263;SDS011;6700;51.988;7.646;2023-02-28T06:50:08;7.20;;;6.17;;
13263;SDS011;6700;51.988;7.646;2023-02-28T06:52:38;7.17;;;5.60;;
13263;SDS011;6700;51.988;7.646;2023-02-28T06:55:05;6.57;;;5.40;;
13263;SDS011;6700;51.988;7.646;2023-02-28T06:57:33;8.37;;;5.80;;
13263;SDS011;6700;51.988;7.646;2023-02-28T07:00:03;14.00;;;6.07;;
13263;SDS011;6700;51.988;7.646;2023-02-28T07:02:34;9.63;;;5.57;;
13263;SDS011;6700;51.988;7.646;2023-02-28T07:05:02;7.23;;;5.57;;
13263;SDS011;6700;51.988;7.646;2023-02-28T07:07:29;8.07;;;6.07;;
13263;SDS011;6700;51.988;7.646;2023-02-28T07:09:56;11.07;;;6.17;;
13263;SDS011;6700;51.988;7.646;2023-02-28T07:12:23;9.37;;;6.57;;
13263;SDS011;6700;51.988;7.646;2023-02-28T07:14:50;9.17;;;6.60;;
13263;SDS011;6700;51.988;7.646;2023-02-28T07:17:17;11.20;;;8.23;;
13263;SDS011;6700;51.988;7.646;2023-02-28T07:19:43;12.80;;;6.90;;
13263;SDS011;6700;51.988;7.646;2023-02-28T07:22:10;9.37;;;7.10;;
13263;SDS011;6700;51.988;7.646;2023-02-28T07:24:38;9.87;;;7.20;;
13263;SDS011;6700;51.988;7.646;2023-02-28T07:27:05;12.63;;;7.77;;
13263;SDS011;6700;51.988;7.646;2023-02-28T07:29:32;13.33;;;7.60;;
13263;SDS011;6700;51.988;7.646;2023-02-28T07:31:59;11.27;;;7.80;;
13263;SDS011;6700;51.988;7.646;2023-02-28T07:34:26;16.83;;;10.23;;
13263;SDS011;6700;51.988;7.646;2023-02-28T07:36:53;32.70;;;15.10;;
13263;SDS011;6700;51.988;7.646;2023-02-28T07:39:21;25.00;;;12.67;;
13263;SDS011;6700;51.988;7.646;2023-02-28T07:41:48;19.43;;;11.40;;
13263;SDS011;6700;51.988;7.646;2023-02-28T07:44:15;23.10;;;12.10;;
13263;SDS011;6700;51.988;7.646;2023-02-28T07:46:42;25.83;;;13.33;;
13263;SDS011;6700;51.988;7.646;2023-02-28T07:49:08;55.80;;;26.97;;
13263;SDS011;6700;51.988;7.646;2023-02-28T07:51:35;62.80;;;25.60;;
13263;SDS011;6700;51.988;7.646;2023-02-28T07:54:02;67.83;;;31.90;;
13263;SDS011;6700;51.988;7.646;2023-02-28T07:56:29;87.77;;;37.63;;
13263;SDS011;6700;51.988;7.646;2023-02-28T07:58:56;88.87;;;37.63;;
13263;SDS011;6700;51.988;7.646;2023-02-28T08:01:23;95.13;;;41.33;;
13263;SDS011;6700;51.988;7.646;2023-02-28T08:03:50;79.67;;;37.07;;
13263;SDS011;6700;51.988;7.646;2023-02-28T08:06:18;89.70;;;36.37;;
13263;SDS011;6700;51.988;7.646;2023-02-28T08:08:47;75.87;;;33.13;;
13263;SDS011;6700;51.988;7.646;2023-02-28T08:11:15;79.70;;;36.30;;
13263;SDS011;6700;51.988;7.646;2023-02-28T08:13:43;64.73;;;27.40;;
13263;SDS011;6700;51.988;7.646;2023-02-28T08:16:11;27.57;;;13.57;;
13263;SDS011;6700;51.988;7.646;2023-02-28T08:18:41;43.83;;;18.93;;
13263;SDS011;6700;51.988;7.646;2023-02-28T08:21:08;30.93;;;13.10;;
13263;SDS011;6700;51.988;7.646;2023-02-28T08:23:36;27.83;;;14.10;;
13263;SDS011;6700;51.988;7.646;2023-02-28T08:26:03;32.67;;;14.00;;
13263;SDS011;6700;51.988;7.646;2023-02-28T08:28:30;18.97;;;9.23;;
13263;SDS011;6700;51.988;7.646;2023-02-28T08:30:57;13.97;;;7.37;;
13263;SDS011;6700;51.988;7.646;2023-02-28T08:33:25;16.90;;;7.53;;
13263;SDS011;6700;51.988;7.646;2023-02-28T08:35:56;7.03;;;4.83;;
13263;SDS011;6700;51.988;7.646;2023-02-28T08:38:23;7.17;;;4.50;;
13263;SDS011;6700;51.988;7.646;2023-02-28T08:40:56;5.70;;;3.37;;
13263;SDS011;6700;51.988;7.646;2023-02-28T08:43:24;4.23;;;2.93;;
13263;SDS011;6700;51.988;7.646;2023-02-28T08:45:52;3.33;;;2.90;;
13263;SDS011;6700;51.988;7.646;2023-02-28T08:48:20;4.17;;;2.93;;
13263;SDS011;6700;51.988;7.646;2023-02-28T08:50:59;2.97;;;2.67;;
13263;SDS011;6700;51.988;7.646;2023-02-28T08:53:33;2.93;;;2.63;;
13263;SDS011;6700;51.988;7.646;2023-02-28T08:56:11;3.93;;;2.97;;
13263;SDS011;6700;51.988;7.646;2023-02-28T08:58:39;3.33;;;2.60;;
13263;SDS011;6700;51.988;7.646;2023-02-28T09:01:13;6.30;;;2.20;;
13263;SDS011;6700;51.988;7.646;2023-02-28T09:03:41;4.20;;;2.40;;
13263;SDS011;6700;51.988;7.646;2023-02-28T09:06:09;2.63;;;2.13;;
13263;SDS011;6700;51.988;7.646;2023-02-28T09:08:37;2.47;;;2.10;;
13263;SDS011;6700;51.988;7.646;2023-02-28T09:11:05;3.07;;;2.30;;
13263;SDS011;6700;51.988;7.646;2023-02-28T09:13:32;2.53;;;2.33;;
13263;SDS011;6700;51.988;7.646;2023-02-28T09:16:00;2.50;;;2.30;;
13263;SDS011;6700;51.988;7.646;2023-02-28T09:18:28;4.10;;;2.63;;
13263;SDS011;6700;51.988;7.646;2023-02-28T09:20:55;3.37;;;2.20;;
13263;SDS011;6700;51.988;7.646;2023-02-28T09:23:22;3.43;;;2.20;;
13263;SDS011;6700;51.988;7.646;2023-02-28T09:25:50;3.30;;;2.20;;
13263;SDS011;6700;51.988;7.646;2023-02-28T09:28:18;5.70;;;2.07;;
13263;SDS011;6700;51.988;7.646;2023-02-28T09:30:47;2.10;;;1.90;;
13263;SDS011;6700;51.988;7.646;2023-02-28T09:33:19;3.07;;;1.90;;
13263;SDS011;6700;51.988;7.646;2023-02-28T09:35:47;2.10;;;1.70;;
13263;SDS011;6700;51.988;7.646;2023-02-28T09:38:15;3.63;;;2.20;;
13263;SDS011;6700;51.988;7.646;2023-02-28T09:40:48;5.70;;;2.10;;
13263;SDS011;6700;51.988;7.646;2023-02-28T09:43:20;1.87;;;1.70;;
13263;SDS011;6700;51.988;7.646;2023-02-28T09:45:51;1.73;;;1.30;;
13263;SDS011;6700;51.988;7.646;2023-02-28T09:48:32;1.50;;;1.40;;
13263;SDS011;6700;51.988;7.646;2023-02-28T09:51:20;2.77;;;1.83;;
13263;SDS011;6700;51.988;7.646;2023-02-28T09:53:50;2.87;;;1.77;;
13263;SDS011;6700;51.988;7.646;2023-02-28T10:10:14;4.87;;;1.67;;
13263;SDS011;6700;51.988;7.646;2023-02-28T10:13:00;1.93;;;1.60;;
13263;SDS011;6700;51.988;7.646;2023-02-28T10:15:30;13.23;;;7.33;;
13263;SDS011;6700;51.988;7.646;2023-02-28T10:18:11;2.97;;;1.60;;
13263;SDS011;6700;51.988;7.646;2023-02-28T10:20:42;1.53;;;1.43;;
13263;SDS011;6700;51.988;7.646;2023-02-28T10:25:53;2.30;;;2.10;;
13263;SDS011;6700;51.988;7.646;2023-02-28T10:28:24;1.90;;;1.67;;
13263;SDS011;6700;51.988;7.646;2023-02-28T10:30:53;2.73;;;1.60;;
13263;SDS011;6700;51.988;7.646;2023-02-28T10:33:31;1.67;;;1.50;;
13263;SDS011;6700;51.988;7.646;2023-02-28T10:36:00;1.97;;;1.50;;
13263;SDS011;6700;51.988;7.646;2023-02-28T10:38:39;5.50;;;1.70;;
13263;SDS011;6700;51.988;7.646;2023-02-28T10:41:10;2.00;;;1.80;;
13263;SDS011;6700;51.988;7.646;2023-02-28T10:43:43;2.23;;;1.47;;
13263;SDS011;6700;51.988;7.646;2023-02-28T10:46:14;1.70;;;1.43;;
13263;SDS011;6700;51.988;7.646;2023-02-28T10:51:27;2.17;;;1.60;;
13263;SDS011;6700;51.988;7.646;2023-02-28T10:54:04;1.63;;;1.53;;
13263;SDS011;6700;51.988;7.646;2023-02-28T10:56:32;1.77;;;1.67;;
13263;SDS011;6700;51.988;7.646;2023-02-28T10:59:01;2.43;;;1.60;;
13263;SDS011;6700;51.988;7.646;2023-02-28T11:03:57;1.97;;;1.77;;
13263;SDS011;6700;51.988;7.646;2023-02-28T11:06:25;1.60;;;1.50;;
13263;SDS011;6700;51.988;7.646;2023-02-28T11:08:58;7.40;;;1.77;;
13263;SDS011;6700;51.988;7.646;2023-02-28T11:11:29;2.30;;;1.80;;
13263;SDS011;6700;51.988;7.646;2023-02-28T11:14:14;2.87;;;1.90;;
13263;SDS011;6700;51.988;7.646;2023-02-28T11:17:14;3.03;;;1.50;;
13263;SDS011;6700;51.988;7.646;2023-02-28T11:19:47;3.83;;;2.50;;
13263;SDS011;6700;51.988;7.646;2023-02-28T11:22:21;7.97;;;6.03;;
13263;SDS011;6700;51.988;7.646;2023-02-28T11:24:55;1.67;;;1.53;;
13263;SDS011;6700;51.988;7.646;2023-02-28T11:27:26;1.97;;;1.70;;
13263;SDS011;6700;51.988;7.646;2023-02-28T11:32:51;1.93;;;1.73;;
13263;SDS011;6700;51.988;7.646;2023-02-28T11:35:23;2.53;;;1.83;;
13263;SDS011;6700;51.988;7.646;2023-02-28T11:38:00;2.90;;;2.00;;
13263;SDS011;6700;51.988;7.646;2023-02-28T11:40:30;2.33;;;1.90;;
13263;SDS011;6700;51.988;7.646;2023-02-28T11:51:47;2.17;;;1.70;;
13263;SDS011;6700;51.988;7.646;2023-02-28T12:12:00;1.90;;;1.70;;
13263;SDS011;6700;51.988;7.646;2023-02-28T12:20:53;3.00;;;1.90;;
13263;SDS011;6700;51.988;7.646;2023-02-28T12:23:14;2.13;;;1.93;;
13263;SDS011;6700;51.988;7.646;2023-02-28T12:28:38;2.03;;;1.83;;
13263;SDS011;6700;51.988;7.646;2023-02-28T12:31:17;2.33;;;2.00;;
13263;SDS011;6700;51.988;7.646;2023-02-28T12:33:47;3.47;;;2.20;;
13263;SDS011;6700;51.988;7.646;2023-02-28T12:36:18;2.67;;;2.30;;
13263;SDS011;6700;51.988;7.646;2023-02-28T12:38:49;2.30;;;1.80;;
13263;SDS011;6700;51.988;7.646;2023-02-28T12:41:40;2.80;;;2.10;;
13263;SDS011;6700;51.988;7.646;2023-02-28T12:44:19;2.30;;;2.00;;
13263;SDS011;6700;51.988;7.646;2023-02-28T12:46:59;3.70;;;2.47;;
13263;SDS011;6700;51.988;7.646;2023-02-28T12:49:32;3.03;;;1.97;;
13263;SDS011;6700;51.988;7.646;2023-02-28T12:52:11;2.20;;;2.00;;
13263;SDS011;6700;51.988;7.646;2023-02-28T12:57:40;3.50;;;2.30;;
13263;SDS011;6700;51.988;7.646;2023-02-28T13:00:19;2.97;;;2.03;;
13263;SDS011;6700;51.988;7.646;2023-02-28T13:14:16;2.17;;;1.97;;
13263;SDS011;6700;51.988;7.646;2023-02-28T13:19:30;2.17;;;1.90;;
13263;SDS011;6700;51.988;7.646;2023-02-28T13:22:16;2.37;;;2.10;;
13263;SDS011;6700;51.988;7.646;2023-02-28T13:24:55;2.93;;;2.23;;
13263;SDS011;6700;51.988;7.646;2023-02-28T13:29:58;2.67;;;2.40;;
13263;SDS011;6700;51.988;7.646;2023-02-28T13:39:52;9.70;;;6.77;;
13263;SDS011;6700;51.988;7.646;2023-02-28T13:42:36;3.67;;;2.83;;
13263;SDS011;6700;51.988;7.646;2023-02-28T13:48:33;3.40;;;2.13;;
13263;SDS011;6700;51.988;7.646;2023-02-28T13:50:42;2.73;;;2.10;;
13263;SDS011;6700;51.988;7.646;2023-02-28T13:55:50;2.80;;;2.20;;
13263;SDS011;6700;51.988;7.646;2023-02-28T14:01:07;4.40;;;2.40;;
13263;SDS011;6700;51.988;7.646;2023-02-28T14:06:29;2.30;;;2.10;;
13263;SDS011;6700;51.988;7.646;2023-02-28T14:09:05;3.90;;;3.00;;
13263;SDS011;6700;51.988;7.646;2023-02-28T14:11:50;2.97;;;2.67;;
13263;SDS011;6700;51.988;7.646;2023-02-28T14:17:03;4.07;;;2.90;;
13263;SDS011;6700;51.988;7.646;2023-02-28T14:19:43;3.23;;;2.47;;
13263;SDS011;6700;51.988;7.646;2023-02-28T14:39:00;3.73;;;2.90;;
13263;SDS011;6700;51.988;7.646;2023-02-28T14:41:32;3.27;;;2.30;;
13263;SDS011;6700;51.988;7.646;2023-02-28T14:44:12;2.63;;;2.37;;
13263;SDS011;6700;51.988;7.646;2023-02-28T14:46:40;2.87;;;2.37;;
13263;SDS011;6700;51.988;7.646;2023-02-28T14:49:26;4.03;;;2.60;;
13263;SDS011;6700;51.988;7.646;2023-02-28T14:54:54;4.57;;;2.53;;
13263;SDS011;6700;51.988;7.646;2023-02-28T14:57:27;3.30;;;2.60;;
13263;SDS011;6700;51.988;7.646;2023-02-28T15:00:04;3.90;;;2.17;;
13263;SDS011;6700;51.988;7.646;2023-02-28T15:02:43;5.07;;;3.27;;
13263;SDS011;6700;51.988;7.646;2023-02-28T15:07:48;3.40;;;2.87;;
13263;SDS011;6700;51.988;7.646;2023-02-28T15:10:28;2.97;;;2.50;;
13263;SDS011;6700;51.988;7.646;2023-02-28T15:12:55;3.17;;;2.73;;
13263;SDS011;6700;51.988;7.646;2023-02-28T15:21:29;2.40;;;2.20;;
13263;SDS011;6700;51.988;7.646;2023-02-28T15:24:05;5.53;;;2.30;;
13263;SDS011;6700;51.988;7.646;2023-02-28T15:26:46;3.20;;;2.70;;
13263;SDS011;6700;51.988;7.646;2023-02-28T15:29:20;3.03;;;2.30;;
13263;SDS011;6700;51.988;7.646;2023-02-28T15:31:50;3.53;;;2.70;;
13263;SDS011;6700;51.988;7.646;2023-02-28T15:34:28;2.50;;;2.27;;
13263;SDS011;6700;51.988;7.646;2023-02-28T15:37:25;2.37;;;2.13;;
13263;SDS011;6700;51.988;7.646;2023-02-28T15:40:45;3.67;;;2.40;;
13263;SDS011;6700;51.988;7.646;2023-02-28T15:43:00;3.33;;;2.53;;
13263;SDS011;6700;51.988;7.646;2023-02-28T15:45:41;4.87;;;2.37;;
13263;SDS011;6700;51.988;7.646;2023-02-28T15:48:20;2.53;;;2.27;;
13263;SDS011;6700;51.988;7.646;2023-02-28T15:54:01;2.93;;;2.20;;
13263;SDS011;6700;51.988;7.646;2023-02-28T15:56:39;3.33;;;2.23;;
13263;SDS011;6700;51.988;7.646;2023-02-28T15:59:18;3.10;;;2.60;;
13263;SDS011;6700;51.988;7.646;2023-02-28T16:02:02;3.80;;;2.57;;
13263;SDS011;6700;51.988;7.646;2023-02-28T16:04:36;2.80;;;2.20;;
13263;SDS011;6700;51.988;7.646;2023-02-28T16:07:04;3.33;;;2.57;;
13263;SDS011;6700;51.988;7.646;2023-02-28T16:09:32;3.20;;;2.33;;
13263;SDS011;6700;51.988;7.646;2023-02-28T16:12:01;3.83;;;2.37;;
13263;SDS011;6700;51.988;7.646;2023-02-28T16:14:29;2.53;;;2.07;;
13263;SDS011;6700;51.988;7.646;2023-02-28T16:17:02;3.03;;;2.73;;
13263;SDS011;6700;51.988;7.646;2023-02-28T16:19:30;3.43;;;2.17;;
13263;SDS011;6700;51.988;7.646;2023-02-28T16:21:59;3.70;;;2.63;;
13263;SDS011;6700;51.988;7.646;2023-02-28T16:24:27;4.00;;;2.43;;
13263;SDS011;6700;51.988;7.646;2023-02-28T16:26:53;3.50;;;2.60;;
13263;SDS011;6700;51.988;7.646;2023-02-28T16:29:24;2.60;;;2.40;;
13263;SDS011;6700;51.988;7.646;2023-02-28T16:31:57;2.80;;;2.40;;
13263;SDS011;6700;51.988;7.646;2023-02-28T16:34:24;3.47;;;2.40;;
13263;SDS011;6700;51.988;7.646;2023-02-28T16:36:51;3.77;;;3.03;;
13263;SDS011;6700;51.988;7.646;2023-02-28T16:39:18;7.50;;;2.80;;
13263;SDS011;6700;51.988;7.646;2023-02-28T16:41:46;4.80;;;2.70;;
13263;SDS011;6700;51.988;7.646;2023-02-28T16:44:27;3.47;;;2.90;;
13263;SDS011;6700;51.988;7.646;2023-02-28T16:46:54;4.03;;;2.73;;
13263;SDS011;6700;51.988;7.646;2023-02-28T16:49:21;2.90;;;2.60;;
13263;SDS011;6700;51.988;7.646;2023-02-28T16:51:48;4.20;;;2.80;;
13263;SDS011;6700;51.988;7.646;2023-02-28T16:54:15;4.63;;;3.00;;
13263;SDS011;6700;51.988;7.646;2023-02-28T16:56:43;3.30;;;2.80;;
13263;SDS011;6700;51.988;7.646;2023-02-28T16:59:12;4.80;;;2.90;;
13263;SDS011;6700;51.988;7.646;2023-02-28T17:01:47;3.33;;;3.00;;
13263;SDS011;6700;51.988;7.646;2023-02-28T17:04:15;5.07;;;2.90;;
13263;SDS011;6700;51.988;7.646;2023-02-28T17:06:42;8.10;;;3.03;;
13263;SDS011;6700;51.988;7.646;2023-02-28T17:09:16;4.00;;;3.60;;
13263;SDS011;6700;51.988;7.646;2023-02-28T17:11:45;4.20;;;2.93;;
13263;SDS011;6700;51.988;7.646;2023-02-28T17:14:12;3.50;;;3.00;;
13263;SDS011;6700;51.988;7.646;2023-02-28T17:16:40;3.40;;;3.10;;
13263;SDS011;6700;51.988;7.646;2023-02-28T17:19:12;3.73;;;2.73;;
13263;SDS011;6700;51.988;7.646;2023-02-28T17:21:40;7.30;;;4.87;;
13263;SDS011;6700;51.988;7.646;2023-02-28T17:24:08;4.70;;;3.50;;
13263;SDS011;6700;51.988;7.646;2023-02-28T17:26:55;4.97;;;3.40;;
13263;SDS011;6700;51.988;7.646;2023-02-28T17:29:22;3.67;;;2.93;;
13263;SDS011;6700;51.988;7.646;2023-02-28T17:31:51;4.43;;;3.33;;
13263;SDS011;6700;51.988;7.646;2023-02-28T17:34:18;6.97;;;3.60;;
13263;SDS011;6700;51.988;7.646;2023-02-28T17:36:46;6.90;;;5.63;;
13263;SDS011;6700;51.988;7.646;2023-02-28T17:39:15;9.27;;;6.63;;
13263;SDS011;6700;51.988;7.646;2023-02-28T17:41:53;5.53;;;3.73;;
13263;SDS011;6700;51.988;7.646;2023-02-28T17:44:21;4.47;;;3.60;;
13263;SDS011;6700;51.988;7.646;2023-02-28T17:46:50;4.43;;;3.70;;
13263;SDS011;6700;51.988;7.646;2023-02-28T17:49:17;5.97;;;3.70;;
13263;SDS011;6700;51.988;7.646;2023-02-28T17:51:44;4.60;;;3.57;;
13263;SDS011;6700;51.988;7.646;2023-02-28T17:54:12;6.13;;;3.27;;
13263;SDS011;6700;51.988;7.646;2023-02-28T17:56:40;5.73;;;3.67;;
13263;SDS011;6700;51.988;7.646;2023-02-28T17:59:09;4.83;;;4.33;;
13263;SDS011;6700;51.988;7.646;2023-02-28T18:01:37;10.53;;;6.03;;
13263;SDS011;6700;51.988;7.646;2023-02-28T18:04:04;7.97;;;5.60;;
13263;SDS011;6700;51.988;7.646;2023-02-28T18:06:41;8.67;;;7.00;;